Time;durP1;ratioP1;P1;durP2;ratioP2;P2;SDS_P1;SDS_P2;PMS_P1;PMS_P2;Temp;Humidity;BMP_temperature;BMP_pressure;BME280_temperature;BME280_humidity;BME280_pressure;Samples;Min_cycle;Max_cycle;Signal;HPM_P1;HPM_P2
2022/10/11 00:04:39;;;;;;;5.05;1.20;;;;;;;19.05;44.23;102400.84;16120289;19;130779;-48
2022/10/11 00:10:01;;;;;;;7.22;1.27;;;;;;;19.04;43.79;102404.69;16119933;19;129977;-48
2022/10/11 00:15:23;;;;;;;5.65;1.23;;;;;;;19.03;43.81;102412.19;16121828;19;129514;-50
2022/10/11 00:20:44;;;;;;;6.40;1.30;;;;;;;19.02;43.83;102420.69;16118187;19;130177;-46
2022/10/11 00:26:08;;;;;;;3.83;1.30;;;;;;;19.00;43.74;102418.13;16117714;19;129893;-50
2022/10/11 00:31:30;;;;;;;5.93;1.27;;;;;;;18.98;43.71;102425.81;16121620;19;129651;-47
2022/10/11 00:36:56;;;;;;;3.35;0.93;;;;;;;18.98;44.14;102425.81;16130566;19;129512;-45
2022/10/11 00:42:18;;;;;;;4.53;1.23;;;;;;;18.96;43.85;102430.72;16130579;19;131029;-52
2022/10/11 00:47:40;;;;;;;5.65;1.30;;;;;;;18.94;43.84;102423.69;16134580;19;130053;-47
2022/10/11 00:53:10;;;;;;;4.88;1.55;;;;;;;18.90;43.67;102423.25;16132126;19;129441;-51
2022/10/11 00:58:33;;;;;;;3.63;1.10;;;;;;;18.89;43.75;102433.47;16132885;19;130612;-49
2022/10/11 01:03:56;;;;;;;3.60;1.02;;;;;;;18.88;44.09;102433.69;16131910;19;129830;-46
2022/10/11 01:09:20;;;;;;;5.13;1.13;;;;;;;18.88;44.02;102433.69;16132280;19;129509;-50
2022/10/11 01:14:52;;;;;;;2.78;1.38;;;;;;;18.87;43.75;102432.84;16132705;19;129511;-45
2022/10/11 01:20:29;;;;;;;3.60;1.17;;;;;;;18.84;43.78;102435.19;16127129;19;135163;-46
2022/10/11 01:26:30;;;;;;;3.88;1.10;;;;;;;18.84;43.50;102438.81;16129356;19;131001;-49
2022/10/11 01:32:11;;;;;;;4.68;1.23;;;;;;;18.82;43.79;102432.63;16125155;19;129664;-48
2022/10/11 01:37:38;;;;;;;4.25;1.20;;;;;;;18.80;43.56;102433.91;16126836;19;130734;-51
2022/10/11 01:43:02;;;;;;;6.20;1.45;;;;;;;18.76;43.94;102434.31;16122251;19;129978;-46
2022/10/11 01:48:24;;;;;;;2.97;1.25;;;;;;;18.74;43.97;102442.00;16127137;19;129637;-46
2022/10/11 01:53:51;;;;;;;3.60;1.20;;;;;;;18.74;43.80;102442.00;16126708;19;129637;-47
2022/10/11 01:59:28;;;;;;;2.88;1.05;;;;;;;18.73;43.68;102450.53;16124076;19;129643;-48
2022/10/11 02:05:17;;;;;;;7.20;1.27;;;;;;;18.71;43.44;102452.66;16125873;19;129629;-47
2022/10/11 02:10:45;;;;;;;3.03;1.40;;;;;;;18.69;43.62;102443.69;16125033;19;129717;-47
2022/10/11 02:16:11;;;;;;;1.73;0.95;;;;;;;18.67;43.73;102449.44;16124125;19;130168;-49
2022/10/11 02:21:38;;;;;;;4.38;1.45;;;;;;;18.66;43.73;102449.66;16125316;19;129839;-49
2022/10/11 02:27:03;;;;;;;1.88;0.80;;;;;;;18.65;43.55;102445.16;16126518;19;130455;-47
2022/10/11 02:32:26;;;;;;;4.70;0.90;;;;;;;18.65;43.54;102440.50;16122893;19;130280;-50
2022/10/11 02:38:18;;;;;;;2.65;1.10;;;;;;;18.65;43.37;102443.25;16123963;19;130655;-48
2022/10/11 02:43:49;;;;;;;2.00;0.80;;;;;;;18.64;43.70;102446.25;16113493;19;129678;-46
2022/10/11 02:49:13;;;;;;;2.30;1.10;;;;;;;18.63;43.35;102439.00;16113066;19;129524;-48
2022/10/11 02:54:35;;;;;;;2.05;0.90;;;;;;;18.61;43.58;102441.97;16114747;19;130082;-47
2022/10/11 02:59:56;;;;;;;3.78;0.95;;;;;;;18.58;43.29;102442.41;16113788;19;130450;-48
2022/10/11 03:05:18;;;;;;;1.80;0.82;;;;;;;18.57;43.48;102451.78;16113620;19;130722;-47
2022/10/11 03:10:41;;;;;;;5.07;1.10;;;;;;;18.57;43.57;102460.09;16112967;19;129469;-47
2022/10/11 03:16:02;;;;;;;2.13;0.90;;;;;;;18.56;43.38;102466.69;16113238;19;130178;-50
2022/10/11 03:21:24;;;;;;;2.30;0.90;;;;;;;18.56;43.29;102467.53;16118787;19;129385;-48
2022/10/11 03:26:46;;;;;;;1.80;0.75;;;;;;;18.55;43.25;102464.97;16123418;19;129380;-48
2022/10/11 03:32:07;;;;;;;2.38;1.23;;;;;;;18.54;43.39;102471.59;16119982;19;129616;-48
2022/10/11 03:37:29;;;;;;;0.85;0.77;;;;;;;18.52;43.66;102470.94;16119003;19;129571;-49
2022/10/11 03:42:51;;;;;;;3.22;0.98;;;;;;;18.51;43.26;102463.69;16117564;19;129865;-49
2022/10/11 03:48:12;;;;;;;1.83;1.00;;;;;;;18.50;43.35;102468.38;16117438;19;129740;-47
2022/10/11 03:53:34;;;;;;;3.40;1.23;;;;;;;18.50;43.54;102481.38;16116205;19;130051;-47
2022/10/11 03:58:56;;;;;;;3.00;0.90;;;;;;;18.50;43.28;102486.91;16118134;19;129480;-48
2022/10/11 04:04:17;;;;;;;3.65;0.98;;;;;;;18.47;43.11;102485.41;16116920;19;130847;-47
2022/10/11 04:09:39;;;;;;;2.78;1.20;;;;;;;18.47;43.50;102496.50;16128099;19;130111;-48
2022/10/11 04:15:01;;;;;;;1.67;0.80;;;;;;;18.45;43.47;102502.25;16131917;19;130218;-47
2022/10/11 04:20:23;;;;;;;2.20;0.98;;;;;;;18.44;43.13;102503.31;16132551;19;129932;-44
2022/10/11 04:25:45;;;;;;;1.70;1.15;;;;;;;18.43;43.07;102504.38;16133346;19;129648;-47
2022/10/11 04:31:07;;;;;;;1.13;0.73;;;;;;;18.43;43.42;102511.81;16131338;19;129750;-47
2022/10/11 04:36:31;;;;;;;1.83;0.70;;;;;;;18.41;43.29;102513.94;16132400;19;130025;-48
2022/10/11 04:41:53;;;;;;;1.85;0.88;;;;;;;18.41;43.18;102512.03;16129852;19;129716;-52
2022/10/11 04:47:15;;;;;;;2.65;0.80;;;;;;;18.40;43.07;102518.66;16132396;19;129387;-51
2022/10/11 04:52:36;;;;;;;1.70;0.90;;;;;;;18.40;43.25;102526.13;16131634;19;129528;-47
2022/10/11 04:57:58;;;;;;;1.77;1.00;;;;;;;18.38;43.10;102522.66;16130607;19;129283;-45
2022/10/11 05:03:20;;;;;;;2.65;0.93;;;;;;;18.38;43.34;102528.19;16128186;19;129586;-49
2022/10/11 05:08:42;;;;;;;1.33;0.90;;;;;;;18.35;43.39;102526.66;16130245;19;129373;-46
2022/10/11 05:14:03;;;;;;;1.75;0.82;;;;;;;18.35;42.94;102528.59;16125450;19;129738;-54
2022/10/11 05:19:25;;;;;;;1.58;0.80;;;;;;;18.34;43.07;102530.50;16118553;19;129965;-49
2022/10/11 05:24:47;;;;;;;1.20;0.70;;;;;;;18.34;43.34;102536.03;16127848;19;129807;-51
2022/10/11 05:30:09;;;;;;;1.63;0.73;;;;;;;18.34;43.03;102541.59;16129450;19;131025;-51
2022/10/11 05:35:31;;;;;;;1.50;0.90;;;;;;;18.33;43.01;102544.56;16128582;19;131869;-48
2022/10/11 05:40:53;;;;;;;2.35;0.98;;;;;;;18.34;43.40;102547.13;16124734;19;129377;-46
2022/10/11 05:46:15;;;;;;;1.27;0.82;;;;;;;18.33;43.37;102550.97;16124368;19;129710;-47
2022/10/11 05:51:37;;;;;;;3.72;0.75;;;;;;;18.33;43.30;102550.13;16125107;19;129532;-50
2022/10/11 05:56:58;;;;;;;2.10;0.90;;;;;;;18.32;43.14;102549.28;16131341;19;131309;-50
2022/10/11 06:02:20;;;;;;;1.75;1.00;;;;;;;18.30;42.95;102552.22;16125145;19;129770;-48
2022/10/11 06:07:42;;;;;;;2.33;1.17;;;;;;;18.28;43.42;102554.34;16128182;19;129773;-47
2022/10/11 06:13:05;;;;;;;2.83;1.17;;;;;;;18.29;43.00;102564.38;16125768;19;131692;-48
2022/10/11 06:18:26;;;;;;;5.03;1.10;;;;;;;18.27;43.02;102573.94;16125439;19;129633;-46
2022/10/11 06:23:49;;;;;;;2.58;1.13;;;;;;;18.26;43.11;102575.00;16128504;19;129354;-47
2022/10/11 06:29:11;;;;;;;4.18;1.10;;;;;;;18.26;43.24;102584.19;16124744;19;129134;-50
2022/10/11 06:34:33;;;;;;;3.30;1.13;;;;;;;18.27;42.82;102580.38;16125875;19;130217;-48
2022/10/11 06:39:54;;;;;;;2.83;1.10;;;;;;;18.31;42.78;102586.34;16125682;19;129631;-54
2022/10/11 06:45:16;;;;;;;5.38;1.30;;;;;;;18.36;43.03;102585.72;16124575;19;129112;-52
2022/10/11 06:50:38;;;;;;;2.45;1.13;;;;;;;18.40;42.85;102604.53;16124110;19;129970;-52
2022/10/11 06:56:19;;;;;;;4.03;1.15;;;;;;;18.45;42.82;102610.34;16122098;19;130321;-50
2022/10/11 07:01:41;;;;;;;4.57;1.23;;;;;;;18.49;42.80;102621.00;16123567;19;129385;-52
2022/10/11 07:07:03;;;;;;;3.30;1.00;;;;;;;18.53;42.49;102614.84;16122880;19;129166;-49
2022/10/11 07:12:25;;;;;;;3.42;1.10;;;;;;;18.73;42.34;102620.50;16121933;19;129681;-50
2022/10/11 07:17:46;;;;;;;6.63;1.10;;;;;;;19.29;42.11;102632.47;16123114;19;129446;-50
2022/10/11 07:23:08;;;;;;;5.72;1.30;;;;;;;19.95;40.99;102630.84;16119972;19;130135;-50
2022/10/11 07:28:30;;;;;;;1.50;1.05;;;;;;;20.29;39.93;102642.84;16123388;19;129339;-49
2022/10/11 07:33:52;;;;;;;2.35;1.40;;;;;;;20.35;39.58;102640.25;16123352;19;129401;-50
2022/10/11 07:39:14;;;;;;;2.42;1.20;;;;;;;20.73;39.17;102645.06;16121984;19;134744;-54
2022/10/11 07:44:35;;;;;;;4.60;1.42;;;;;;;21.18;38.65;102650.69;16121419;19;130473;-51
2022/10/11 07:49:57;;;;;;;2.22;1.20;;;;;;;21.77;37.38;102641.38;16123992;19;129540;-55
2022/10/11 07:55:19;;;;;;;2.30;1.15;;;;;;;22.38;36.55;102645.38;16120434;19;133378;-54
2022/10/11 08:00:41;;;;;;;2.10;0.95;;;;;;;22.95;35.46;102649.88;16119328;19;129465;-54
2022/10/11 08:06:05;;;;;;;1.58;1.15;;;;;;;23.43;34.78;102642.56;16121383;19;129492;-54
2022/10/11 08:11:32;;;;;;;2.55;1.20;;;;;;;23.38;34.55;102638.78;16116984;19;129647;-55
2022/10/11 08:16:53;;;;;;;;;;;;;;;22.64;35.30;102646.16;16119206;19;129531;-53
2022/10/11 08:22:15;;;;;;;3.10;1.20;;;;;;;21.96;36.35;102642.28;16117916;19;129429;-51
2022/10/11 08:27:36;;;;;;;6.57;1.27;;;;;;;21.33;37.23;102653.19;16119612;19;129659;-55
2022/10/11 08:32:59;;;;;;;1.98;1.08;;;;;;;20.82;37.59;102654.91;16118135;19;129636;-53
2022/10/11 08:38:25;;;;;;;4.05;1.10;;;;;;;20.45;38.26;102663.75;16116101;19;129837;-54
2022/10/11 08:44:03;;;;;;;4.43;1.13;;;;;;;20.17;39.44;102655.69;16115332;19;129173;-56
2022/10/11 08:49:30;;;;;;;4.13;1.30;;;;;;;19.92;39.76;102661.84;16117164;19;129575;-52
2022/10/11 08:55:06;;;;;;;2.75;1.25;;;;;;;19.76;40.28;102668.66;16127600;19;129617;-52
2022/10/11 09:00:31;;;;;;;1.42;0.98;;;;;;;19.59;40.11;102659.88;16131934;19;129724;-53
2022/10/11 09:06:17;;;;;;;2.03;1.43;;;;;;;19.48;40.86;102657.72;16132830;19;129541;-50
2022/10/11 09:12:01;;;;;;;2.33;1.15;;;;;;;19.38;40.57;102664.53;16132605;19;129175;-48
2022/10/11 09:17:44;;;;;;;3.80;1.23;;;;;;;19.30;41.08;102661.06;16131346;19;129689;-49
2022/10/11 09:23:16;;;;;;;2.10;1.20;;;;;;;19.21;41.11;102660.41;16130830;19;129813;-50
2022/10/11 09:28:56;;;;;;;3.53;1.30;;;;;;;19.13;41.18;102666.09;16129846;19;129717;-55
2022/10/11 09:34:31;;;;;;;4.05;1.15;;;;;;;19.10;41.51;102669.28;16129275;19;129599;-50
2022/10/11 09:39:59;;;;;;;2.05;1.20;;;;;;;19.05;41.94;102670.78;16129236;19;130754;-51
2022/10/11 09:45:20;;;;;;;1.77;1.10;;;;;;;19.02;41.80;102667.53;16126579;19;129564;-54
2022/10/11 09:50:43;;;;;;;3.60;1.35;;;;;;;18.98;41.69;102669.03;16128761;19;129415;-54
2022/10/11 09:56:05;;;;;;;2.25;1.25;;;;;;;18.94;42.16;102668.59;16126324;19;130178;-50
2022/10/11 10:01:28;;;;;;;2.63;1.30;;;;;;;18.92;42.11;102670.72;16126183;19;130262;-51
2022/10/11 10:07:09;;;;;;;2.55;1.23;;;;;;;18.91;41.95;102669.00;16126205;19;129650;-52
2022/10/11 10:12:31;;;;;;;3.78;1.40;;;;;;;18.88;42.32;102669.41;16127667;19;129294;-54
2022/10/11 10:17:52;;;;;;;1.85;1.00;;;;;;;18.84;42.35;102674.53;16127913;19;130692;-49
2022/10/11 10:23:23;;;;;;;2.88;1.10;;;;;;;18.84;42.40;102662.56;16127348;19;129869;-52
2022/10/11 10:29:03;;;;;;;2.85;1.20;;;;;;;18.82;42.14;102660.00;16127749;19;129773;-53
2022/10/11 10:34:36;;;;;;;1.55;0.90;;;;;;;18.79;42.53;102648.47;16126130;19;129478;-52
2022/10/11 10:40:07;;;;;;;5.35;1.55;;;;;;;18.78;42.23;102658.69;16128654;19;129900;-50
2022/10/11 10:46:15;;;;;;;3.00;1.00;;;;;;;18.77;42.68;102652.31;16125371;19;129257;-50
2022/10/11 10:51:52;;;;;;;4.28;1.27;;;;;;;18.74;42.70;102651.88;16129714;19;129555;-52
2022/10/11 10:57:27;;;;;;;3.45;1.17;;;;;;;18.73;42.34;102651.00;16124405;19;129357;-50
2022/10/11 11:02:57;;;;;;;3.85;1.45;;;;;;;18.71;42.38;102649.50;16119596;19;130173;-47
2022/10/11 11:08:53;;;;;;;3.95;1.23;;;;;;;18.70;42.80;102645.00;16124218;19;129743;-49
2022/10/11 11:14:21;;;;;;;5.40;1.27;;;;;;;18.68;42.76;102648.00;16121537;19;129956;-51
2022/10/11 11:19:57;;;;;;;2.75;1.25;;;;;;;18.70;42.82;102639.47;16121459;19;129481;-48
2022/10/11 11:25:24;;;;;;;2.50;0.85;;;;;;;18.66;42.62;102633.47;16123449;19;130273;-51
2022/10/11 11:31:11;;;;;;;3.58;1.25;;;;;;;18.66;42.37;102630.69;16121404;19;129495;-52
2022/10/11 11:36:43;;;;;;;4.53;1.58;;;;;;;18.64;42.74;102630.03;16120560;19;129152;-53
2022/10/11 11:42:12;;;;;;;2.03;1.10;;;;;;;18.64;42.74;102624.50;16120824;19;129215;-48
2022/10/11 11:47:42;;;;;;;2.58;1.00;;;;;;;18.62;42.60;102615.53;16122863;19;130959;-49
2022/10/11 11:53:12;;;;;;;3.10;1.15;;;;;;;18.63;42.64;102600.63;16119981;19;129873;-52
2022/10/11 11:58:51;;;;;;;3.47;1.30;;;;;;;18.64;42.86;102602.31;16120218;19;133904;-49
2022/10/11 12:04:27;;;;;;;5.97;1.55;;;;;;;18.61;42.37;102592.50;16117421;19;129445;-55
2022/10/11 12:09:53;;;;;;;3.78;1.52;;;;;;;18.59;42.78;102585.44;16119015;19;131167;-51
2022/10/11 12:15:22;;;;;;;3.33;1.45;;;;;;;18.58;42.49;102584.59;16119891;19;129715;-51
2022/10/11 12:20:44;;;;;;;6.68;1.45;;;;;;;18.57;42.36;102593.13;16121103;19;129590;-52
2022/10/11 12:26:14;;;;;;;3.97;1.15;;;;;;;18.58;42.39;102587.38;16120321;19;129718;-52
2022/10/11 12:31:36;;;;;;;5.70;1.35;;;;;;;18.56;42.82;102578.41;16135181;19;129543;-50
2022/10/11 12:37:16;;;;;;;4.03;1.20;;;;;;;18.56;42.57;102575.63;16134036;19;130460;-53
2022/10/11 12:42:38;;;;;;;5.55;1.20;;;;;;;18.54;42.56;102568.59;16135709;19;129131;-53
2022/10/11 12:48:32;;;;;;;4.93;1.42;;;;;;;18.56;42.51;102569.25;16133145;19;129243;-51
2022/10/11 12:54:19;;;;;;;2.72;1.17;;;;;;;18.53;42.64;102564.94;16132945;19;129374;-51
2022/10/11 12:59:50;;;;;;;3.65;1.40;;;;;;;18.53;42.54;102564.09;16133116;19;129205;-52
2022/10/11 13:05:21;;;;;;;8.38;1.38;;;;;;;18.53;42.52;102564.09;16129912;19;129729;-48
2022/10/11 13:10:44;;;;;;;5.13;1.40;;;;;;;18.53;42.22;102561.34;16131071;19;129523;-52
2022/10/11 13:16:19;;;;;;;3.10;1.00;;;;;;;18.54;42.16;102557.50;16131248;19;129301;-52
2022/10/11 13:21:42;;;;;;;2.30;0.90;;;;;;;18.54;42.55;102551.97;16132336;19;130588;-54
2022/10/11 13:27:05;;;;;;;4.30;1.48;;;;;;;18.52;42.52;102552.19;16131506;19;129866;-49
2022/10/11 13:32:29;;;;;;;3.13;1.20;;;;;;;18.53;42.39;102547.47;16129622;19;129855;-53
2022/10/11 13:37:51;;;;;;;2.75;1.23;;;;;;;18.53;42.16;102540.00;16128851;19;130237;-54
2022/10/11 13:43:14;;;;;;;3.30;1.00;;;;;;;18.53;42.28;102533.63;16125341;19;130789;-51
2022/10/11 13:48:40;;;;;;;5.18;1.10;;;;;;;18.52;42.23;102532.78;16129209;19;130787;-48
2022/10/11 13:54:03;;;;;;;;;;;;;;;18.49;42.51;102538.72;16128152;19;129263;-48
2022/10/11 13:59:27;;;;;;;3.75;1.23;;;;;;;18.51;42.11;102535.75;16126996;19;129602;-49
2022/10/11 14:04:49;;;;;;;7.97;1.20;;;;;;;18.52;42.31;102537.44;16126685;19;130082;-51
2022/10/11 14:10:19;;;;;;;3.47;1.60;;;;;;;18.51;42.57;102532.97;16125820;19;129394;-50
2022/10/11 14:15:41;;;;;;;2.28;0.85;;;;;;;18.50;42.35;102529.34;16128486;19;130427;-55
2022/10/11 14:21:18;;;;;;;3.35;1.25;;;;;;;18.52;42.56;102524.47;16130138;19;129547;-53
2022/10/11 14:26:49;;;;;;;3.28;1.00;;;;;;;18.51;42.46;102519.97;16125574;19;129454;-49
2022/10/11 14:32:17;;;;;;;2.83;1.00;;;;;;;18.50;42.53;102514.63;16126084;19;129802;-53
2022/10/11 14:37:39;;;;;;;3.03;1.13;;;;;;;18.49;42.49;102505.47;16127094;19;130698;-54
2022/10/11 14:43:00;;;;;;;4.65;0.98;;;;;;;18.51;42.45;102516.34;16124228;19;129454;-50
2022/10/11 14:48:22;;;;;;;4.28;1.02;;;;;;;18.49;42.18;102511.00;16121818;19;129859;-53
2022/10/11 14:54:04;;;;;;;2.38;1.30;;;;;;;18.49;42.46;102502.69;16122918;19;129546;-51
2022/10/11 14:59:31;;;;;;;4.90;1.23;;;;;;;18.50;42.46;102500.75;16122287;19;129421;-51
2022/10/11 15:04:53;;;;;;;4.32;1.20;;;;;;;18.49;42.26;102499.06;16120656;19;129619;-53
2022/10/11 15:10:27;;;;;;;3.10;1.23;;;;;;;18.50;42.25;102489.69;16120718;19;129141;-48
2022/10/11 15:15:49;;;;;;;3.25;1.40;;;;;;;18.48;42.08;102484.34;16122580;19;129266;-51
2022/10/11 15:21:14;;;;;;;4.05;1.05;;;;;;;18.48;42.42;102470.50;16120021;19;130946;-52
2022/10/11 15:26:35;;;;;;;5.53;1.40;;;;;;;18.48;42.19;102459.41;16124864;19;129784;-53
2022/10/11 15:31:57;;;;;;;3.70;1.20;;;;;;;18.48;41.96;102458.53;16119303;19;129381;-49
2022/10/11 15:37:19;;;;;;;4.18;1.08;;;;;;;18.46;42.02;102467.91;16119734;19;135635;-50
2022/10/11 15:42:41;;;;;;;4.85;1.27;;;;;;;18.46;42.10;102464.31;16120244;19;129630;-51
2022/10/11 15:48:03;;;;;;;5.60;1.02;;;;;;;18.46;42.42;102462.38;16119977;19;129328;-54
2022/10/11 15:53:28;;;;;;;3.65;1.20;;;;;;;18.46;42.39;102462.38;16119213;19;129292;-51
2022/10/11 15:58:50;;;;;;;2.88;1.10;;;;;;;18.45;42.38;102459.81;16119887;19;129565;-51
2022/10/11 16:04:12;;;;;;;2.38;1.08;;;;;;;18.44;42.06;102460.88;16126302;19;130159;-53
2022/10/11 16:09:33;;;;;;;2.85;1.20;;;;;;;18.42;42.30;102458.34;16133835;19;129539;-51
2022/10/11 16:14:55;;;;;;;5.65;0.95;;;;;;;18.39;41.77;102455.09;16132821;19;129417;-50
2022/10/11 16:20:21;;;;;;;6.85;1.65;;;;;;;18.38;42.17;102465.31;16133925;19;129895;-52
2022/10/11 16:25:42;;;;;;;5.78;2.10;;;;;;;18.37;42.07;102474.69;16135020;19;130138;-52
2022/10/11 16:31:17;;;;;;;4.57;1.35;;;;;;;18.38;41.78;102476.41;16132158;19;129810;-50
2022/10/11 16:36:42;;;;;;;6.15;1.70;;;;;;;18.35;41.68;102468.50;16135254;19;129551;-47
2022/10/11 16:42:04;;;;;;;5.25;1.05;;;;;;;18.33;41.45;102473.41;16135214;19;129607;-48
2022/10/11 16:47:26;;;;;;;7.07;1.60;;;;;;;18.33;41.82;102467.00;16131521;19;129385;-50
2022/10/11 16:52:48;;;;;;;4.95;1.70;;;;;;;18.32;41.86;102468.91;16132134;19;129305;-49
2022/10/11 16:58:09;;;;;;;3.33;1.10;;;;;;;18.31;41.60;102464.44;16129640;19;129441;-49
2022/10/11 17:03:31;;;;;;;6.65;1.35;;;;;;;18.31;41.75;102472.75;16132577;19;129515;-51
2022/10/11 17:08:53;;;;;;;7.10;1.20;;;;;;;18.31;41.67;102483.84;16130160;19;129293;-50
2022/10/11 17:14:16;;;;;;;3.42;1.27;;;;;;;18.30;41.80;102482.97;16128064;19;129488;-53
2022/10/11 17:19:40;;;;;;;3.47;1.10;;;;;;;18.29;41.88;102477.63;16133144;19;130073;-52
2022/10/11 17:25:06;;;;;;;6.95;1.98;;;;;;;18.28;42.23;102478.69;16128623;19;129027;-50
2022/10/11 17:30:27;;;;;;;5.22;1.70;;;;;;;18.27;42.13;102479.75;16128613;19;129548;-48
2022/10/11 17:35:49;;;;;;;3.67;1.08;;;;;;;18.26;41.92;102497.44;16129994;19;129871;-51
2022/10/11 17:41:11;;;;;;;3.72;1.02;;;;;;;18.23;42.35;102484.00;16128611;19;130450;-47
2022/10/11 17:46:33;;;;;;;2.88;0.80;;;;;;;18.24;41.97;102491.25;16130789;19;129357;-47
2022/10/11 17:51:55;;;;;;;5.07;1.58;;;;;;;18.25;42.00;102487.41;16128696;19;129932;-49
2022/10/11 17:57:17;;;;;;;13.40;2.10;;;;;;;18.28;42.58;102487.00;16127902;19;130718;-45
2022/10/11 18:02:39;;;;;;;19.88;2.15;;;;;;;18.45;42.19;102491.19;16130656;19;133744;-46
2022/10/11 18:08:00;;;;;;;12.65;2.00;;;;;;;18.71;42.52;102488.69;16128663;19;129387;-49
2022/10/11 18:13:22;;;;;;;23.92;2.72;;;;;;;19.11;41.92;102482.38;16126448;19;129329;-47
2022/10/11 18:18:44;;;;;;;14.43;2.03;;;;;;;19.55;41.68;102480.06;16125786;19;129566;-45
2022/10/11 18:24:11;;;;;;;16.33;1.90;;;;;;;19.92;40.98;102486.84;16127510;19;129621;-48
2022/10/11 18:29:33;;;;;;;19.73;1.70;;;;;;;20.16;40.95;102492.81;16126273;19;129713;-47
2022/10/11 18:34:56;;;;;;;18.65;2.22;;;;;;;20.29;40.71;102481.63;16127052;19;129964;-45
2022/10/11 18:40:18;;;;;;;15.95;2.28;;;;;;;20.31;40.97;102481.41;16126270;19;129355;-46
2022/10/11 18:45:40;;;;;;;19.45;2.42;;;;;;;20.27;41.03;102482.91;16125338;19;129395;-48
2022/10/11 18:51:07;;;;;;;19.00;2.13;;;;;;;20.18;41.36;102479.56;16124774;19;129269;-47
2022/10/11 18:56:31;;;;;;;13.32;2.38;;;;;;;20.10;41.39;102477.00;16128546;19;129755;-46
2022/10/11 19:01:53;;;;;;;7.70;1.48;;;;;;;19.96;41.88;102471.44;16126585;19;129792;-49
2022/10/11 19:07:14;;;;;;;10.43;1.92;;;;;;;19.88;41.74;102471.69;16121007;19;129813;-48
2022/10/11 19:12:36;;;;;;;18.77;2.40;;;;;;;19.79;41.72;102476.59;16125175;19;129202;-51
2022/10/11 19:17:58;;;;;;;14.80;2.17;;;;;;;19.73;41.98;102469.16;16124144;19;129553;-46
2022/10/11 19:23:21;;;;;;;12.45;1.90;;;;;;;19.67;42.14;102467.22;16122828;19;129607;-46
2022/10/11 19:28:43;;;;;;;15.70;2.30;;;;;;;19.57;42.03;102472.38;16124114;19;129378;-45
2022/10/11 19:34:05;;;;;;;18.10;2.38;;;;;;;19.48;42.55;102474.50;16123948;19;129805;-45
2022/10/11 19:39:28;;;;;;;19.10;2.35;;;;;;;19.45;42.77;102472.16;16120110;19;130138;-46
2022/10/11 19:44:50;;;;;;;17.02;2.20;;;;;;;19.49;43.09;102466.00;16121263;19;131140;-48
2022/10/11 19:50:11;;;;;;;19.55;2.35;;;;;;;19.59;43.03;102471.09;16121113;19;129525;-45
2022/10/11 19:55:34;;;;;;;15.32;2.42;;;;;;;19.69;42.91;102471.50;16120303;19;129333;-45
2022/10/11 20:01:06;;;;;;;11.02;2.10;;;;;;;19.80;42.79;102477.47;16120194;19;130287;-46
2022/10/11 20:06:29;;;;;;;16.23;2.83;;;;;;;19.85;42.82;102472.13;16119291;19;129996;-47
2022/10/11 20:11:57;;;;;;;12.63;2.55;;;;;;;19.82;42.75;102478.97;16118754;19;130954;-45
2022/10/11 20:17:19;;;;;;;15.10;2.35;;;;;;;19.79;42.67;102475.78;16118411;19;130411;-46
2022/10/11 20:22:41;;;;;;;11.88;2.70;;;;;;;19.72;42.60;102474.91;16117775;19;129516;-45
2022/10/11 20:28:03;;;;;;;12.85;2.53;;;;;;;19.62;42.59;102469.81;16118294;19;129606;-47
2022/10/11 20:33:25;;;;;;;11.43;2.50;;;;;;;19.55;42.76;102488.38;16116803;19;130184;-45
2022/10/11 20:38:48;;;;;;;8.05;2.22;;;;;;;19.49;42.50;102487.31;16118205;19;130144;-46
2022/10/11 20:44:11;;;;;;;11.65;2.30;;;;;;;19.43;42.68;102479.88;16109162;19;129464;-46
2022/10/11 20:49:33;;;;;;;8.88;2.30;;;;;;;19.37;43.03;102484.34;16117303;19;129724;-46
2022/10/11 20:54:55;;;;;;;9.95;2.75;;;;;;;19.33;42.80;102480.28;16125907;19;129533;-48
2022/10/11 21:00:17;;;;;;;10.95;2.83;;;;;;;19.28;42.59;102482.84;16130252;19;129660;-46
2022/10/11 21:05:39;;;;;;;7.75;2.63;;;;;;;19.22;42.56;102476.22;16133934;19;130635;-46
2022/10/11 21:11:01;;;;;;;7.85;2.40;;;;;;;19.18;42.51;102481.31;16129519;19;129784;-48
2022/10/11 21:16:23;;;;;;;11.32;2.80;;;;;;;19.16;42.96;102479.81;16130805;19;130222;-49
2022/10/11 21:21:46;;;;;;;7.70;2.83;;;;;;;19.11;42.96;102479.59;16129075;19;129889;-46
2022/10/11 21:27:13;;;;;;;8.77;2.80;;;;;;;19.07;42.74;102471.72;16128863;19;129119;-48
2022/10/11 21:32:35;;;;;;;8.77;2.78;;;;;;;19.04;42.83;102479.59;16128986;19;129750;-46
2022/10/11 21:37:58;;;;;;;11.93;3.05;;;;;;;19.01;42.75;102475.31;16130018;19;130135;-47
2022/10/11 21:43:20;;;;;;;6.57;2.72;;;;;;;18.98;42.96;102475.72;16126742;19;130791;-47
2022/10/11 21:48:42;;;;;;;7.75;3.20;;;;;;;18.97;42.95;102478.72;16127107;19;131535;-47
2022/10/11 21:54:04;;;;;;;7.60;2.75;;;;;;;18.92;42.92;102468.28;16130490;19;130300;-53
2022/10/11 21:59:25;;;;;;;9.90;2.83;;;;;;;18.89;42.81;102454.81;16123845;19;129658;-52
2022/10/11 22:04:47;;;;;;;8.63;3.08;;;;;;;18.87;42.78;102459.72;16124782;19;129392;-48
2022/10/11 22:10:09;;;;;;;6.28;3.10;;;;;;;18.84;42.54;102457.34;16127840;19;130654;-46
2022/10/11 22:15:34;;;;;;;8.18;3.33;;;;;;;18.84;42.50;102451.81;16128818;19;129404;-49
2022/10/11 22:21:13;;;;;;;;;;;;;;;18.77;42.92;102452.66;16128984;19;131216;-47
2022/10/11 22:26:34;;;;;;;8.07;2.90;;;;;;;18.77;42.66;102447.13;16126467;19;130160;-48
2022/10/11 22:31:56;;;;;;;7.88;3.60;;;;;;;18.75;42.93;102443.72;16126062;19;129666;-46
2022/10/11 22:37:18;;;;;;;10.75;3.40;;;;;;;18.73;42.41;102445.81;16122919;19;129861;-46
2022/10/11 22:42:39;;;;;;;9.82;3.33;;;;;;;18.70;42.38;102439.84;16126194;19;130188;-48
2022/10/11 22:48:01;;;;;;;6.63;3.13;;;;;;;18.70;42.36;102437.94;16124987;19;129454;-47
2022/10/11 22:53:23;;;;;;;9.65;3.47;;;;;;;18.68;42.33;102430.88;16121904;19;130874;-48
2022/10/11 22:58:45;;;;;;;6.53;3.15;;;;;;;18.66;42.57;102439.44;16124621;19;129778;-48
2022/10/11 23:04:06;;;;;;;6.82;3.00;;;;;;;18.66;42.58;102435.78;16120068;19;129145;-46
2022/10/11 23:09:30;;;;;;;8.73;3.33;;;;;;;18.62;42.50;102435.34;16118819;19;129238;-52
2022/10/11 23:14:52;;;;;;;8.40;3.67;;;;;;;18.62;42.71;102440.91;16122965;19;129865;-49
2022/10/11 23:20:13;;;;;;;8.68;4.13;;;;;;;18.60;42.56;102431.94;16123299;19;129412;-50
2022/10/11 23:25:35;;;;;;;10.00;3.80;;;;;;;18.60;42.61;102426.38;16122000;19;129683;-49
2022/10/11 23:30:57;;;;;;;10.68;4.07;;;;;;;18.57;42.17;102421.28;16123825;19;129451;-50
2022/10/11 23:36:23;;;;;;;7.80;3.70;;;;;;;18.56;42.65;102419.56;16119217;19;129602;-47
2022/10/11 23:41:45;;;;;;;9.63;3.30;;;;;;;18.54;42.65;102413.38;16121772;19;130251;-51
2022/10/11 23:47:06;;;;;;;6.82;3.80;;;;;;;18.53;42.39;102423.59;16117936;19;130067;-46
2022/10/11 23:52:28;;;;;;;5.72;3.28;;;;;;;18.51;42.59;102413.78;16117280;19;129008;-48
2022/10/11 23:57:50;;;;;;;10.45;3.72;;;;;;;18.51;42.32;102424.88;16119760;19;129648;-47
